Time;durP1;ratioP1;P1;durP2;ratioP2;P2;SDS_P1;SDS_P2;PMS_P1;PMS_P2;Temp;Humidity;BMP_temperature;BMP_pressure;BME280_temperature;BME280_humidity;BME280_pressure;Samples;Min_cycle;Max_cycle;Signal;HPM_P1;HPM_P2
2022/09/17 00:00:22;;;;;;;3.60;1.35;;;;;;;22.41;45.03;101357.56;5055408;28;20044;-32
2022/09/17 00:02:54;;;;;;;2.58;1.13;;;;;;;22.44;44.84;101360.97;5056752;28;20044;-42
2022/09/17 00:05:21;;;;;;;3.72;1.40;;;;;;;22.43;45.16;101357.44;5056112;28;20478;-42
2022/09/17 00:07:47;;;;;;;3.75;1.20;;;;;;;22.43;44.95;101362.84;5036835;28;20173;-34
2022/09/17 00:10:12;;;;;;;3.85;1.50;;;;;;;22.40;45.10;101366.66;5056402;28;20040;-35
2022/09/17 00:12:37;;;;;;;4.75;1.40;;;;;;;22.37;45.06;101366.91;5057166;28;20028;-32
2022/09/17 00:15:03;;;;;;;3.83;1.55;;;;;;;22.41;45.12;101368.34;5056020;28;20046;-31
2022/09/17 00:17:28;;;;;;;5.22;1.50;;;;;;;22.42;44.77;101361.13;5057103;28;20454;-32
2022/09/17 00:19:54;;;;;;;4.68;1.45;;;;;;;22.41;45.09;101365.66;5056293;28;20123;-31
2022/09/17 00:22:20;;;;;;;4.88;1.67;;;;;;;22.39;45.03;101380.25;5056432;28;20023;-44
2022/09/17 00:24:45;;;;;;;4.63;1.40;;;;;;;22.35;44.99;101409.31;5056129;28;20051;-44
2022/09/17 00:27:10;;;;;;;4.22;1.60;;;;;;;22.37;45.04;101403.84;5056104;28;20024;-44
2022/09/17 00:29:36;;;;;;;3.70;1.50;;;;;;;22.36;45.02;101392.16;5055672;28;20032;-34
2022/09/17 00:32:01;;;;;;;6.10;1.60;;;;;;;22.34;44.82;101391.44;5057421;28;20236;-34
2022/09/17 00:34:27;;;;;;;3.97;1.33;;;;;;;22.33;45.05;101383.44;5054637;28;20163;-34
2022/09/17 00:36:52;;;;;;;5.82;1.80;;;;;;;22.33;45.18;101378.06;5057268;28;20047;-34
2022/09/17 00:39:17;;;;;;;3.70;1.40;;;;;;;22.34;45.16;101385.16;5056268;28;20114;-33
2022/09/17 00:41:43;;;;;;;3.88;1.35;;;;;;;22.31;45.21;101383.59;5056855;28;20028;-35
2022/09/17 00:44:38;;;;;;;5.65;1.70;;;;;;;22.34;44.97;101374.38;5056371;28;20040;-33
2022/09/17 00:47:04;;;;;;;6.13;1.42;;;;;;;22.31;44.96;101358.47;5055971;28;20050;-34
2022/09/17 00:49:31;;;;;;;3.42;1.50;;;;;;;22.29;45.02;101360.44;5045333;28;20529;-33
2022/09/17 00:52:03;;;;;;;3.47;1.30;;;;;;;22.25;45.40;101357.13;5036750;28;20419;-34
2022/09/17 00:54:29;;;;;;;3.78;1.60;;;;;;;22.25;45.20;101360.72;5056312;28;20048;-44
2022/09/17 00:56:56;;;;;;;3.58;1.45;;;;;;;22.27;45.41;101357.88;5056447;28;20040;-31
2022/09/17 00:59:22;;;;;;;3.83;1.40;;;;;;;22.28;45.40;101362.28;5056413;28;20061;-32
2022/09/17 01:01:48;;;;;;;4.25;1.67;;;;;;;22.29;45.45;101371.22;5054973;28;20040;-42
2022/09/17 01:04:18;;;;;;;4.25;1.40;;;;;;;22.26;45.45;101364.25;5056458;28;20780;-43
2022/09/17 01:07:10;;;;;;;3.60;1.30;;;;;;;22.24;45.40;101361.69;5071055;27;20123;-42
2022/09/17 01:09:51;;;;;;;4.60;1.48;;;;;;;22.24;45.14;101369.78;5055796;28;20028;-42
2022/09/17 01:12:25;;;;;;;5.60;1.55;;;;;;;22.19;45.43;101372.03;5055926;28;20032;-42
2022/09/17 01:15:09;;;;;;;4.57;1.50;;;;;;;22.16;45.33;101369.59;5055676;28;20228;-42
2022/09/17 01:17:58;;;;;;;4.28;1.13;;;;;;;22.15;45.57;101359.78;5055998;28;20583;-31
2022/09/17 01:20:52;;;;;;;5.22;1.80;;;;;;;22.17;45.56;101365.88;5055968;28;20724;-42
2022/09/17 01:23:40;;;;;;;3.95;1.30;;;;;;;22.20;45.46;101370.16;5054148;28;20153;-31
2022/09/17 01:26:30;;;;;;;4.35;1.63;;;;;;;22.17;45.63;101365.06;5055213;28;20031;-42
2022/09/17 01:29:06;;;;;;;4.72;1.75;;;;;;;22.13;45.56;101366.31;5051050;28;20036;-44
2022/09/17 01:31:47;;;;;;;4.57;1.45;;;;;;;22.16;45.54;101360.63;5055681;28;20039;-44
2022/09/17 01:34:53;;;;;;;3.42;1.13;;;;;;;22.17;45.32;101370.44;5054585;28;20048;-45
2022/09/17 01:37:47;;;;;;;3.95;1.40;;;;;;;22.14;45.29;101374.25;5037812;28;20437;-42
2022/09/17 01:40:36;;;;;;;4.63;1.50;;;;;;;22.13;45.66;101369.84;5055986;28;20034;-42
2022/09/17 01:43:08;;;;;;;4.00;1.50;;;;;;;22.15;45.44;101373.28;5055017;28;20603;-42
2022/09/17 01:45:41;;;;;;;4.82;1.67;;;;;;;22.16;45.40;101380.38;5055660;28;20032;-46
2022/09/17 01:48:16;;;;;;;4.07;1.17;;;;;;;22.13;45.29;101377.94;5054766;28;20499;-33
2022/09/17 01:50:50;;;;;;;4.35;1.45;;;;;;;22.10;45.58;101378.22;5054307;28;20056;-32
2022/09/17 01:53:19;;;;;;;5.18;1.60;;;;;;;22.13;45.43;101374.41;5054914;28;22283;-32
2022/09/17 01:55:48;;;;;;;4.78;1.48;;;;;;;22.12;45.44;101380.78;5055133;28;20042;-44
2022/09/17 01:58:27;;;;;;;5.03;1.67;;;;;;;22.09;45.22;101382.72;5054739;28;20163;-43
2022/09/17 02:01:05;;;;;;;5.57;1.55;;;;;;;22.09;45.66;101381.88;5055250;28;20038;-43
2022/09/17 02:03:37;;;;;;;4.93;1.50;;;;;;;22.09;45.32;101398.06;5053485;28;20319;-43
2022/09/17 02:06:11;;;;;;;5.90;1.60;;;;;;;22.07;45.64;101389.25;5055571;28;20762;-30
2022/09/17 02:08:55;;;;;;;5.20;1.65;;;;;;;22.05;45.25;101394.78;5054664;28;20475;-31
2022/09/17 02:11:21;;;;;;;4.40;1.42;;;;;;;22.06;45.41;101390.25;5053207;28;21340;-30
2022/09/17 02:13:57;;;;;;;4.45;1.52;;;;;;;22.06;45.11;101393.78;5054556;28;21055;-42
2022/09/17 02:16:29;;;;;;;4.22;1.70;;;;;;;22.03;45.35;101402.13;5054283;28;20689;-43
2022/09/17 02:19:05;;;;;;;5.88;1.73;;;;;;;22.04;45.61;101395.75;5054202;28;20484;-31
2022/09/17 02:21:45;;;;;;;4.85;1.50;;;;;;;22.04;45.57;101398.44;5054131;28;20037;-43
2022/09/17 02:24:18;;;;;;;4.32;1.52;;;;;;;22.00;45.22;101394.31;5048542;28;20123;-31
2022/09/17 02:27:00;;;;;;;5.43;2.00;;;;;;;22.02;45.35;101384.25;5054205;28;20400;-32
2022/09/17 02:29:34;;;;;;;6.15;1.58;;;;;;;22.02;45.40;101391.47;5053589;28;20027;-42
2022/09/17 02:32:00;;;;;;;4.50;1.70;;;;;;;22.03;45.59;101375.16;5054805;28;20593;-42
2022/09/17 02:34:27;;;;;;;6.22;1.85;;;;;;;22.02;45.65;101392.34;5052975;28;21349;-41
2022/09/17 02:36:53;;;;;;;4.35;1.65;;;;;;;22.03;45.24;101423.69;5049733;28;20604;-43
2022/09/17 02:39:19;;;;;;;5.25;1.48;;;;;;;22.05;45.32;101429.00;5052774;28;20102;-42
2022/09/17 02:42:16;;;;;;;5.82;1.63;;;;;;;22.00;45.22;101397.00;5069351;28;20513;-42
2022/09/17 02:44:44;;;;;;;6.45;1.83;;;;;;;22.02;45.15;101400.44;5038839;28;20578;-32
2022/09/17 02:47:24;;;;;;;4.90;1.60;;;;;;;21.98;45.11;101401.66;5053111;28;20161;-42
2022/09/17 02:50:28;;;;;;;4.78;1.75;;;;;;;21.97;45.27;101394.59;5054965;28;20077;-31
2022/09/17 02:53:03;;;;;;;4.90;1.75;;;;;;;21.96;45.58;101403.66;5049980;28;20031;-41
2022/09/17 02:55:40;;;;;;;3.05;1.30;;;;;;;21.97;45.23;101413.47;5053654;28;20183;-31
2022/09/17 02:58:15;;;;;;;4.20;1.42;;;;;;;21.96;45.43;101408.16;5053345;28;20028;-42
2022/09/17 03:00:42;;;;;;;3.33;1.30;;;;;;;21.93;45.55;101406.59;5055217;28;20046;-31
2022/09/17 03:03:22;;;;;;;5.10;1.58;;;;;;;21.93;45.23;101417.38;5056905;28;20524;-31
2022/09/17 03:05:49;;;;;;;6.33;1.50;;;;;;;21.91;45.41;101422.06;5059000;28;20359;-30
2022/09/17 03:08:19;;;;;;;5.13;1.45;;;;;;;21.90;45.31;101413.09;5042756;28;20297;-42
2022/09/17 03:10:45;;;;;;;4.55;1.48;;;;;;;21.88;45.44;101409.69;5057996;28;20032;-34
2022/09/17 03:13:10;;;;;;;3.17;1.60;;;;;;;21.93;45.50;101403.91;5058724;28;20028;-31
2022/09/17 03:15:36;;;;;;;4.93;1.90;;;;;;;21.91;45.44;101398.63;5058172;28;20070;-43
2022/09/17 03:18:01;;;;;;;4.47;1.70;;;;;;;21.87;45.56;101391.81;5072999;27;20513;-32
2022/09/17 03:20:27;;;;;;;5.88;1.75;;;;;;;21.86;45.31;101398.16;5054194;28;20032;-42
2022/09/17 03:22:52;;;;;;;6.15;2.03;;;;;;;21.85;45.42;101401.00;5056302;28;20033;-41
2022/09/17 03:25:18;;;;;;;5.13;1.52;;;;;;;21.87;45.30;101401.75;5058970;28;20044;-42
2022/09/17 03:27:43;;;;;;;3.75;1.33;;;;;;;21.85;45.57;101401.00;5057730;28;20024;-42
2022/09/17 03:30:08;;;;;;;4.82;1.88;;;;;;;21.85;45.45;101398.31;5057708;28;20055;-42
2022/09/17 03:32:34;;;;;;;3.38;1.42;;;;;;;21.84;45.17;101385.81;5058376;28;20043;-32
2022/09/17 03:34:59;;;;;;;3.80;1.48;;;;;;;21.79;45.60;101379.94;5057465;28;20147;-42
2022/09/17 03:37:25;;;;;;;3.05;1.20;;;;;;;21.81;45.75;101395.00;5057482;28;20094;-42
2022/09/17 03:39:50;;;;;;;3.90;1.50;;;;;;;21.81;45.68;101396.84;5057378;28;20472;-42
2022/09/17 03:42:15;;;;;;;4.65;1.55;;;;;;;21.83;45.36;101394.88;5058040;28;20735;-30
2022/09/17 03:44:41;;;;;;;3.78;1.30;;;;;;;21.83;45.45;101390.34;5056503;28;20047;-31
2022/09/17 03:47:06;;;;;;;3.72;1.58;;;;;;;21.82;45.60;101391.34;5057945;28;20134;-42
2022/09/17 03:49:32;;;;;;;4.35;1.60;;;;;;;21.73;45.96;101389.41;5056705;28;20032;-42
2022/09/17 03:51:57;;;;;;;5.20;1.80;;;;;;;21.66;45.90;101388.22;5056937;28;20627;-42
2022/09/17 03:54:22;;;;;;;4.18;1.35;;;;;;;21.60;45.69;101387.75;5056314;28;20044;-32
2022/09/17 03:56:48;;;;;;;3.70;1.52;;;;;;;21.52;46.40;101392.88;5052654;28;20682;-43
2022/09/17 03:59:13;;;;;;;3.15;1.20;;;;;;;21.49;46.41;101400.38;5057379;28;20044;-43
2022/09/17 04:01:38;;;;;;;4.30;1.38;;;;;;;21.51;46.23;101396.56;5057362;28;20810;-30
2022/09/17 04:04:04;;;;;;;4.55;1.55;;;;;;;21.51;46.41;101393.00;5055648;28;20728;-31
2022/09/17 04:06:29;;;;;;;4.53;1.50;;;;;;;21.51;46.11;101395.69;5057218;28;21448;-31
2022/09/17 04:08:55;;;;;;;4.70;1.45;;;;;;;21.51;46.10;101403.75;5057026;28;20023;-31
2022/09/17 04:11:22;;;;;;;4.00;1.23;;;;;;;21.50;46.26;101402.91;5056533;28;20073;-30
2022/09/17 04:13:47;;;;;;;2.75;1.15;;;;;;;21.54;46.16;101408.91;5055836;28;20080;-33
2022/09/17 04:16:13;;;;;;;3.70;1.42;;;;;;;21.53;46.10;101408.03;5057944;28;20029;-32
2022/09/17 04:18:39;;;;;;;4.18;1.42;;;;;;;21.52;46.34;101402.78;5055909;28;20029;-42
2022/09/17 04:21:05;;;;;;;4.88;1.40;;;;;;;21.48;46.07;101409.41;5058037;28;20066;-42
2022/09/17 04:23:30;;;;;;;3.65;1.40;;;;;;;21.48;45.99;101410.25;5055901;28;20035;-33
2022/09/17 04:25:55;;;;;;;3.83;1.42;;;;;;;21.49;46.29;101403.91;5057168;28;20535;-42
2022/09/17 04:28:21;;;;;;;3.55;1.25;;;;;;;21.49;46.48;101408.44;5070695;27;20495;-30
2022/09/17 04:30:47;;;;;;;2.47;1.20;;;;;;;21.50;46.14;101413.69;5056898;28;20046;-31
2022/09/17 04:33:12;;;;;;;3.83;1.40;;;;;;;21.52;45.67;101417.13;5056673;28;20032;-42
2022/09/17 04:35:38;;;;;;;9.63;1.48;;;;;;;21.49;46.02;101424.63;5049399;28;20408;-42
2022/09/17 04:38:03;;;;;;;12.02;1.92;;;;;;;21.56;46.66;101445.56;5049121;28;20073;-41
2022/09/17 04:40:29;;;;;;;7.47;1.60;;;;;;;21.66;46.73;101442.09;5050484;28;20544;-41
2022/09/17 04:42:55;;;;;;;6.15;1.55;;;;;;;21.66;46.60;101442.94;5050098;28;20027;-42
2022/09/17 04:45:22;;;;;;;9.65;1.80;;;;;;;21.73;46.38;101429.84;5053596;28;20047;-42
2022/09/17 04:47:49;;;;;;;5.68;1.40;;;;;;;21.74;46.52;101432.41;5054256;28;20027;-44
2022/09/17 04:50:18;;;;;;;6.43;1.50;;;;;;;21.83;46.38;101433.50;5050958;28;20151;-45
2022/09/17 04:52:44;;;;;;;5.25;1.48;;;;;;;21.92;46.09;101437.25;5050034;28;20607;-42
2022/09/17 04:55:10;;;;;;;5.15;1.40;;;;;;;21.91;46.19;101431.00;5049967;28;20032;-43
2022/09/17 04:57:36;;;;;;;5.45;1.40;;;;;;;21.96;46.05;101437.84;5029209;28;20039;-43
2022/09/17 05:00:03;;;;;;;6.25;1.20;;;;;;;21.94;46.09;101440.66;5051695;28;20037;-43
2022/09/17 05:02:28;;;;;;;5.38;1.38;;;;;;;21.95;46.14;101446.94;5050829;28;20055;-43
2022/09/17 05:04:55;;;;;;;5.63;1.52;;;;;;;21.96;46.45;101433.31;5050233;28;20052;-43
2022/09/17 05:07:21;;;;;;;2.90;1.02;;;;;;;22.00;46.05;101428.53;5049176;28;20066;-42
2022/09/17 05:09:46;;;;;;;5.63;1.40;;;;;;;21.95;46.56;101420.81;5049830;28;20052;-43
2022/09/17 05:12:12;;;;;;;5.13;1.27;;;;;;;21.98;46.10;101434.03;5049831;28;20646;-43
2022/09/17 05:14:37;;;;;;;5.28;1.55;;;;;;;22.03;46.26;101420.16;5049857;28;20560;-42
2022/09/17 05:17:02;;;;;;;4.97;1.30;;;;;;;22.04;46.43;101422.72;5048064;28;20119;-42
2022/09/17 05:19:28;;;;;;;3.80;1.20;;;;;;;22.04;46.33;101428.13;5048903;28;20154;-43
2022/09/17 05:21:53;;;;;;;3.85;1.30;;;;;;;22.04;46.36;101429.97;5049629;28;20059;-42
2022/09/17 05:24:18;;;;;;;3.03;1.00;;;;;;;22.04;46.02;101436.22;5048612;28;20119;-42
2022/09/17 05:26:44;;;;;;;3.83;1.23;;;;;;;22.05;46.12;101440.63;5049193;28;20447;-43
2022/09/17 05:29:09;;;;;;;3.85;1.27;;;;;;;22.07;46.29;101427.00;5048890;28;20025;-42
2022/09/17 05:31:34;;;;;;;4.43;1.50;;;;;;;22.04;46.22;101427.28;5049612;28;20044;-42
2022/09/17 05:34:00;;;;;;;3.08;1.10;;;;;;;22.04;46.36;101429.97;5049402;28;20056;-42
2022/09/17 05:36:25;;;;;;;4.15;1.30;;;;;;;22.04;46.32;101435.38;5049159;28;20694;-42
2022/09/17 05:38:51;;;;;;;4.03;1.27;;;;;;;22.03;46.08;101429.09;5046857;28;20767;-42
2022/09/17 05:41:16;;;;;;;2.78;0.98;;;;;;;22.03;46.22;101423.69;5049908;28;20564;-43
2022/09/17 05:43:42;;;;;;;3.88;1.30;;;;;;;22.07;46.39;101432.41;5030794;28;20148;-42
2022/09/17 05:46:08;;;;;;;3.38;1.15;;;;;;;22.08;46.38;101432.28;5048927;28;20031;-42
2022/09/17 05:48:34;;;;;;;3.85;1.25;;;;;;;22.10;46.33;101434.84;5049537;28;20040;-43
2022/09/17 05:50:59;;;;;;;3.95;1.27;;;;;;;22.10;46.33;101430.31;5048501;28;20040;-42
2022/09/17 05:53:24;;;;;;;2.78;1.10;;;;;;;22.09;46.16;101433.97;5029444;28;20032;-43
2022/09/17 05:55:50;;;;;;;3.70;1.20;;;;;;;22.10;46.56;101435.69;5063008;27;20036;-43
2022/09/17 05:58:17;;;;;;;3.78;1.38;;;;;;;22.16;46.22;101455.03;5049121;28;20040;-31
2022/09/17 06:00:46;;;;;;;3.65;1.10;;;;;;;22.19;46.12;101466.44;5048831;28;20837;-36
2022/09/17 06:03:14;;;;;;;2.95;1.15;;;;;;;22.38;45.48;101457.66;5048646;28;20480;-32
2022/09/17 06:05:40;;;;;;;3.80;1.35;;;;;;;22.74;44.31;101457.31;5047493;28;20035;-30
2022/09/17 06:08:06;;;;;;;3.95;1.30;;;;;;;22.97;43.78;101458.00;5049110;28;20043;-30
2022/09/17 06:10:34;;;;;;;3.13;1.15;;;;;;;23.12;43.22;101460.34;5042873;28;20302;-42
2022/09/17 06:12:59;;;;;;;3.47;1.27;;;;;;;23.17;42.65;101452.72;5049634;28;20040;-44
2022/09/17 06:15:26;;;;;;;4.80;1.35;;;;;;;23.19;42.58;101466.94;5050571;28;20040;-42
2022/09/17 06:17:52;;;;;;;2.83;1.30;;;;;;;23.22;42.72;101472.06;5048461;28;20141;-42
2022/09/17 06:20:18;;;;;;;2.70;1.10;;;;;;;23.30;42.61;101456.03;5048455;28;20131;-42
2022/09/17 06:22:44;;;;;;;4.93;1.10;;;;;;;23.39;43.12;101467.88;5048994;28;20496;-44
2022/09/17 06:25:09;;;;;;;2.88;1.02;;;;;;;23.44;42.71;101457.50;5049383;28;21180;-45
2022/09/17 06:27:35;;;;;;;4.10;1.20;;;;;;;23.49;42.84;101460.66;5048192;28;20036;-44
2022/09/17 06:30:01;;;;;;;3.00;1.30;;;;;;;23.54;42.72;101471.91;5048179;28;20479;-43
2022/09/17 06:32:27;;;;;;;4.40;1.33;;;;;;;23.55;42.67;101486.25;5029316;28;20032;-42
2022/09/17 06:34:54;;;;;;;3.50;1.30;;;;;;;23.53;42.71;101488.25;5047658;28;20523;-43
2022/09/17 06:37:26;;;;;;;4.20;1.33;;;;;;;23.50;42.86;101496.63;5049264;28;20050;-43
2022/09/17 06:39:51;;;;;;;1.75;0.88;;;;;;;23.48;42.60;101496.78;5049051;28;20817;-42
2022/09/17 06:42:16;;;;;;;3.45;1.08;;;;;;;23.49;42.70;101498.50;5047918;28;20028;-43
2022/09/17 06:44:42;;;;;;;2.80;1.20;;;;;;;23.49;42.74;101484.09;5027636;28;20130;-42
2022/09/17 06:47:07;;;;;;;4.60;1.10;;;;;;;23.49;42.89;101486.81;5029262;28;20152;-30
2022/09/17 06:49:33;;;;;;;3.72;1.27;;;;;;;23.48;42.70;101479.69;5048935;28;20039;-42
2022/09/17 06:51:58;;;;;;;2.80;0.85;;;;;;;23.47;42.81;101470.75;5048501;28;20590;-45
2022/09/17 06:54:24;;;;;;;3.70;1.20;;;;;;;23.45;43.19;101475.41;5048271;28;20456;-44
2022/09/17 06:56:49;;;;;;;74.88;4.60;;;;;;;23.45;43.32;101470.00;5048030;28;20032;-42
2022/09/17 06:59:14;;;;;;;4.20;1.33;;;;;;;23.46;43.19;101470.88;5048945;28;20047;-43
2022/09/17 07:01:40;;;;;;;7.45;1.40;;;;;;;23.45;43.43;101482.69;5047862;28;20040;-42
2022/09/17 07:04:05;;;;;;;3.95;1.55;;;;;;;23.46;43.00;101503.31;5047463;28;20044;-42
2022/09/17 07:06:30;;;;;;;3.90;1.20;;;;;;;23.46;42.99;101498.75;5049462;28;20032;-42
2022/09/17 07:08:57;;;;;;;8.27;1.40;;;;;;;23.44;42.73;101481.84;5046854;28;20039;-45
2022/09/17 07:11:22;;;;;;;4.15;1.40;;;;;;;23.44;43.23;101486.38;5048110;28;20057;-43
2022/09/17 07:13:48;;;;;;;7.65;1.73;;;;;;;23.44;43.06;101486.38;5045299;28;20135;-42
2022/09/17 07:16:13;;;;;;;5.95;1.60;;;;;;;23.44;43.20;101484.53;5046188;28;20032;-43
2022/09/17 07:18:39;;;;;;;7.18;1.38;;;;;;;23.46;42.45;101482.53;5060795;28;20036;-43
2022/09/17 07:21:05;;;;;;;5.18;1.35;;;;;;;23.47;42.96;101473.44;5046677;28;20043;-42
2022/09/17 07:23:32;;;;;;;5.63;1.30;;;;;;;23.48;42.75;101490.50;5026007;28;20062;-42
2022/09/17 07:26:00;;;;;;;4.95;1.60;;;;;;;23.50;43.03;101477.72;5047206;28;20028;-43
2022/09/17 07:28:27;;;;;;;9.70;2.53;;;;;;;23.52;42.61;101482.00;5042465;28;20028;-42
2022/09/17 07:30:54;;;;;;;13.63;2.92;;;;;;;23.51;42.68;101482.97;5053198;28;20080;-43
2022/09/17 07:33:23;;;;;;;13.85;3.60;;;;;;;23.53;42.39;101481.00;5061273;28;20038;-42
2022/09/17 07:35:57;;;;;;;21.98;4.25;;;;;;;23.50;42.64;101480.41;5046255;28;20045;-42
2022/09/17 07:38:23;;;;;;;14.48;3.63;;;;;;;23.47;42.69;101476.16;5047460;28;20040;-42
2022/09/17 07:41:12;;;;;;;15.13;3.47;;;;;;;23.47;42.50;101480.72;5031449;28;20064;-43
2022/09/17 07:43:38;;;;;;;10.23;2.97;;;;;;;23.48;42.38;101485.97;5046175;28;20035;-43
2022/09/17 07:46:05;;;;;;;7.57;2.20;;;;;;;23.52;43.03;101508.19;5044722;28;20032;-43
2022/09/17 07:48:31;;;;;;;9.82;2.60;;;;;;;23.50;43.10;101496.63;5045107;28;20035;-43
2022/09/17 07:50:56;;;;;;;11.98;2.90;;;;;;;23.48;42.94;101496.78;5038183;28;20477;-42
2022/09/17 07:53:22;;;;;;;8.85;2.88;;;;;;;23.50;42.74;101496.63;5034106;28;20045;-31
2022/09/17 07:55:55;;;;;;;8.02;2.38;;;;;;;23.51;42.45;101498.34;5049481;28;20232;-42
2022/09/17 07:58:22;;;;;;;8.82;2.50;;;;;;;23.52;41.87;101498.22;5051112;28;21348;-43
2022/09/17 08:00:48;;;;;;;9.15;2.40;;;;;;;23.50;42.32;101500.19;5049616;28;20366;-31
2022/09/17 08:03:14;;;;;;;8.68;2.83;;;;;;;23.52;42.29;101500.06;5051105;28;20024;-31
2022/09/17 08:05:39;;;;;;;14.23;2.65;;;;;;;23.53;42.46;101496.34;5030001;28;20063;-34
2022/09/17 08:08:05;;;;;;;31.23;4.40;;;;;;;23.52;42.70;101491.97;5050546;28;20050;-32
2022/09/17 08:10:30;;;;;;;9.85;2.70;;;;;;;23.52;42.65;101494.66;5049458;28;22238;-31
2022/09/17 08:12:57;;;;;;;13.20;2.33;;;;;;;23.50;42.48;101491.22;5049053;28;20080;-31
2022/09/17 08:15:23;;;;;;;13.98;2.55;;;;;;;23.48;42.94;101487.81;5051072;28;20184;-31
2022/09/17 08:17:50;;;;;;;10.00;2.63;;;;;;;23.45;42.45;101485.38;5047092;28;20035;-42
2022/09/17 08:20:15;;;;;;;7.93;2.20;;;;;;;23.45;42.52;101504.31;5049646;28;20032;-42
2022/09/17 08:22:41;;;;;;;116.22;6.50;;;;;;;23.42;43.15;101510.00;5047693;28;20084;-43
2022/09/17 08:25:08;;;;;;;8.27;2.47;;;;;;;23.44;42.44;101497.19;5049194;28;20151;-44
2022/09/17 08:27:34;;;;;;;9.93;2.20;;;;;;;23.49;42.69;101509.31;5048526;28;20486;-43
2022/09/17 08:30:00;;;;;;;9.18;2.33;;;;;;;23.52;42.26;101505.47;5048658;28;20096;-32
2022/09/17 08:32:28;;;;;;;9.60;2.10;;;;;;;23.51;42.39;101510.00;5029334;28;20114;-33
2022/09/17 08:34:54;;;;;;;8.65;2.08;;;;;;;23.52;42.61;101516.28;5047720;28;20480;-33
2022/09/17 08:37:20;;;;;;;5.47;1.90;;;;;;;23.52;42.61;101509.03;5047797;28;20036;-34
2022/09/17 08:39:45;;;;;;;8.07;2.00;;;;;;;23.54;42.54;101507.06;5048303;28;20032;-32
2022/09/17 08:42:22;;;;;;;6.50;2.08;;;;;;;23.56;42.68;101504.19;5048293;28;20035;-31
2022/09/17 08:44:49;;;;;;;7.43;2.10;;;;;;;23.58;42.71;101504.06;5048633;28;20059;-35
2022/09/17 08:47:37;;;;;;;6.10;2.00;;;;;;;23.59;42.72;101503.06;5049701;28;20246;-32
2022/09/17 08:50:16;;;;;;;5.78;1.90;;;;;;;23.59;42.48;101516.59;5047490;28;20562;-33
2022/09/17 08:53:05;;;;;;;6.88;2.33;;;;;;;23.60;42.72;101508.34;5048542;28;20098;-35
2022/09/17 08:55:44;;;;;;;4.22;1.70;;;;;;;23.60;42.76;101510.19;5047408;28;20508;-34
2022/09/17 08:58:38;;;;;;;5.43;1.65;;;;;;;23.62;42.83;101514.47;5049407;28;20028;-31
2022/09/17 09:01:04;;;;;;;4.95;1.45;;;;;;;23.62;42.58;101511.75;5047928;28;20404;-32
2022/09/17 09:03:36;;;;;;;3.38;1.45;;;;;;;23.62;42.37;101517.16;5046792;28;20327;-43
2022/09/17 09:06:01;;;;;;;4.20;1.50;;;;;;;23.63;42.44;101518.88;5046966;28;20036;-43
2022/09/17 09:08:32;;;;;;;4.88;1.60;;;;;;;23.63;42.60;101521.59;5047816;28;20032;-32
2022/09/17 09:11:01;;;;;;;3.85;1.48;;;;;;;23.64;42.93;101517.03;5047552;28;20039;-43
2022/09/17 09:13:45;;;;;;;4.18;1.40;;;;;;;23.65;42.43;101516.88;5047422;28;20032;-43
2022/09/17 09:16:17;;;;;;;3.95;1.58;;;;;;;23.68;42.34;101523.88;5047444;28;20450;-43
2022/09/17 09:18:42;;;;;;;3.72;1.40;;;;;;;23.70;42.58;101511.06;5047329;28;21009;-43
2022/09/17 09:21:29;;;;;;;2.63;1.20;;;;;;;23.69;42.16;101512.91;5047597;28;20206;-43
2022/09/17 09:24:14;;;;;;;3.97;1.17;;;;;;;23.71;42.42;101516.34;5049152;28;20025;-43
2022/09/17 09:26:39;;;;;;;5.25;1.35;;;;;;;23.71;42.25;101519.03;5048510;28;20283;-43
2022/09/17 09:29:42;;;;;;;2.63;1.20;;;;;;;23.72;42.39;101523.47;5049157;28;20495;-44
2022/09/17 09:32:22;;;;;;;5.43;1.48;;;;;;;23.73;42.73;101527.88;5048843;28;21444;-42
2022/09/17 09:34:48;;;;;;;4.00;1.48;;;;;;;23.73;42.57;101518.91;5047223;28;20124;-43
2022/09/17 09:37:16;;;;;;;2.67;1.23;;;;;;;23.72;42.81;101528.88;5048084;28;20067;-32
2022/09/17 09:39:44;;;;;;;2.70;1.38;;;;;;;23.74;42.70;101520.63;5046631;28;20032;-42
2022/09/17 09:42:18;;;;;;;3.25;1.20;;;;;;;23.77;42.26;101519.47;5061209;27;21391;-44
2022/09/17 09:44:43;;;;;;;4.05;1.20;;;;;;;23.75;42.80;101508.81;5046448;28;20028;-44
2022/09/17 09:47:42;;;;;;;3.47;1.13;;;;;;;23.75;42.47;101508.81;5046344;28;20478;-43
2022/09/17 09:50:22;;;;;;;3.35;1.08;;;;;;;23.78;42.34;101515.78;5047578;28;20033;-44
2022/09/17 09:52:51;;;;;;;3.50;1.27;;;;;;;23.76;42.49;101513.22;5044759;28;20559;-44
2022/09/17 09:55:31;;;;;;;4.70;1.30;;;;;;;23.78;42.74;101507.69;5046861;28;20040;-44
2022/09/17 09:58:11;;;;;;;3.70;1.40;;;;;;;23.79;42.74;101517.50;5049156;28;20031;-43
2022/09/17 10:00:41;;;;;;;4.40;1.30;;;;;;;23.80;43.26;101511.06;5049492;28;20067;-43
2022/09/17 10:03:27;;;;;;;5.38;1.25;;;;;;;23.81;42.98;101516.38;5048499;28;21266;-43
2022/09/17 10:06:02;;;;;;;3.65;1.33;;;;;;;23.82;42.66;101534.28;5037109;28;20039;-43
2022/09/17 10:08:52;;;;;;;3.58;1.42;;;;;;;23.82;43.09;101518.06;5048263;28;20024;-43
2022/09/17 10:11:22;;;;;;;5.55;1.80;;;;;;;23.86;43.16;101518.63;5037284;28;20109;-43
2022/09/17 10:13:47;;;;;;;5.65;1.90;;;;;;;23.86;42.89;101537.56;5046484;28;20043;-44
2022/09/17 10:16:23;;;;;;;6.60;1.95;;;;;;;23.89;42.89;101545.41;5029846;28;20040;-44
2022/09/17 10:19:17;;;;;;;8.02;1.40;;;;;;;23.90;43.45;101544.41;5047450;28;20664;-43
2022/09/17 10:21:43;;;;;;;5.82;1.48;;;;;;;23.92;42.96;101555.97;5042519;28;20063;-44
2022/09/17 10:24:25;;;;;;;14.40;1.63;;;;;;;23.90;42.87;101541.69;5026502;28;20583;-44
2022/09/17 10:26:59;;;;;;;7.53;1.73;;;;;;;23.89;43.36;101534.59;5046997;28;20028;-31
2022/09/17 10:29:24;;;;;;;9.10;1.58;;;;;;;23.89;43.25;101529.19;5049194;28;20446;-33
2022/09/17 10:31:55;;;;;;;6.28;1.48;;;;;;;23.89;43.52;101531.91;5047819;28;20028;-32
2022/09/17 10:34:26;;;;;;;5.07;1.60;;;;;;;23.89;43.36;101534.59;5045833;28;20065;-31
2022/09/17 10:36:51;;;;;;;;;;;;;;;23.89;42.93;101529.19;5061928;27;20651;-32
2022/09/17 10:39:33;;;;;;;9.23;2.30;;;;;;;23.93;43.32;101519.00;5050334;28;19927;-32
2022/09/17 10:42:14;;;;;;;10.25;2.65;;;;;;;23.94;42.77;101515.25;5033409;28;20451;-32
2022/09/17 10:44:51;;;;;;;7.57;2.47;;;;;;;23.94;42.78;101513.44;5048563;28;20619;-32
2022/09/17 10:47:27;;;;;;;9.05;2.08;;;;;;;23.96;43.28;101514.13;5062488;28;20608;-30
2022/09/17 10:50:05;;;;;;;38.30;3.97;;;;;;;23.98;43.15;101520.25;5048135;28;20166;-32
2022/09/17 10:52:37;;;;;;;14.10;3.05;;;;;;;23.97;43.31;101523.97;5043445;28;20165;-30
2022/09/17 10:55:19;;;;;;;10.25;2.40;;;;;;;24.01;43.42;101525.38;5046574;28;20078;-31
2022/09/17 10:57:54;;;;;;;11.20;2.67;;;;;;;24.02;42.91;101515.44;5046519;28;20067;-43
2022/09/17 11:00:22;;;;;;;12.93;2.75;;;;;;;24.03;43.12;101528.81;5047079;28;20512;-43
2022/09/17 11:03:12;;;;;;;9.40;2.50;;;;;;;24.05;43.16;101510.59;5048123;28;20033;-43
2022/09/17 11:06:12;;;;;;;12.35;2.28;;;;;;;24.09;42.71;101515.72;5046190;28;20036;-43
2022/09/17 11:08:56;;;;;;;9.98;2.20;;;;;;;24.10;42.77;101517.44;5045179;28;20583;-43
2022/09/17 11:11:55;;;;;;;10.50;2.30;;;;;;;24.11;42.74;101501.06;5048362;28;20039;-43
2022/09/17 11:14:42;;;;;;;7.45;2.08;;;;;;;24.13;42.13;101512.59;5046734;28;20854;-43
2022/09/17 11:17:45;;;;;;;6.00;2.20;;;;;;;24.15;42.13;101496.22;5058977;28;20464;-43
2022/09/17 11:20:36;;;;;;;8.85;2.05;;;;;;;24.15;42.50;101510.59;5049012;28;20087;-43
2022/09/17 11:23:34;;;;;;;9.57;2.07;;;;;;;24.16;42.21;101512.31;5050737;28;21635;-33
2022/09/17 11:26:27;;;;;;;11.65;2.40;;;;;;;24.13;42.02;101509.03;5051806;28;20306;-31
2022/09/17 11:29:01;;;;;;;30.45;2.85;;;;;;;24.09;42.00;101513.84;5051242;28;21619;-35
2022/09/17 11:31:36;;;;;;;13.43;2.33;;;;;;;24.12;41.85;101510.00;5047382;28;20024;-31
2022/09/17 11:34:24;;;;;;;12.90;2.60;;;;;;;24.16;42.12;101506.06;5051895;28;20208;-31
2022/09/17 11:37:01;;;;;;;11.00;2.20;;;;;;;24.20;41.86;101521.00;5049993;28;20147;-33
2022/09/17 11:39:38;;;;;;;8.15;2.28;;;;;;;24.21;41.79;101510.03;5033095;28;20043;-31
2022/09/17 11:42:10;;;;;;;9.93;2.30;;;;;;;24.24;41.91;101516.16;5050876;28;20534;-31